sensor_id;sensor_type;location;lat;lon;timestamp;pressure;altitude;pressure_sealevel;temperature;humidity
75640;BME280;64233;51.486;6.332;2022-10-22T00:01:32;100694.34;;;11.26;100.00
75640;BME280;64233;51.486;6.332;2022-10-22T00:03:57;100693.56;;;11.26;100.00
75640;BME280;64233;51.486;6.332;2022-10-22T00:06:23;100686.50;;;11.19;100.00
75640;BME280;64233;51.486;6.332;2022-10-22T00:08:49;100695.94;;;11.22;100.00
75640;BME280;64233;51.486;6.332;2022-10-22T00:11:16;100703.75;;;11.24;100.00
75640;BME280;64233;51.486;6.332;2022-10-22T00:13:42;100705.81;;;11.49;100.00
75640;BME280;64233;51.486;6.332;2022-10-22T00:16:09;100702.84;;;11.50;100.00
75640;BME280;64233;51.486;6.332;2022-10-22T00:18:35;100697.53;;;11.56;100.00
75640;BME280;64233;51.486;6.332;2022-10-22T00:21:01;100692.41;;;11.54;100.00
75640;BME280;64233;51.486;6.332;2022-10-22T00:23:26;100694.06;;;11.60;100.00
75640;BME280;64233;51.486;6.332;2022-10-22T00:25:52;100688.47;;;11.72;100.00
75640;BME280;64233;51.486;6.332;2022-10-22T00:28:17;100693.59;;;11.74;100.00
75640;BME280;64233;51.486;6.332;2022-10-22T00:30:43;100693.25;;;11.65;100.00
75640;BME280;64233;51.486;6.332;2022-10-22T00:33:08;100688.69;;;11.60;100.00
75640;BME280;64233;51.486;6.332;2022-10-22T00:35:34;100688.41;;;11.62;100.00
75640;BME280;64233;51.486;6.332;2022-10-22T00:38:00;100692.16;;;11.61;100.00
75640;BME280;64233;51.486;6.332;2022-10-22T00:40:25;100693.78;;;11.62;100.00
75640;BME280;64233;51.486;6.332;2022-10-22T00:42:50;100690.31;;;11.61;100.00
75640;BME280;64233;51.486;6.332;2022-10-22T00:45:21;100686.47;;;11.52;100.00
75640;BME280;64233;51.486;6.332;2022-10-22T00:47:54;100696.13;;;11.48;100.00
75640;BME280;64233;51.486;6.332;2022-10-22T00:50:25;100683.78;;;11.47;100.00
75640;BME280;64233;51.486;6.332;2022-10-22T00:52:53;100682.09;;;11.41;100.00
75640;BME280;64233;51.486;6.332;2022-10-22T00:55:19;100682.63;;;11.37;100.00
75640;BME280;64233;51.486;6.332;2022-10-22T00:57:46;100680.47;;;11.40;100.00
75640;BME280;64233;51.486;6.332;2022-10-22T01:00:12;100672.66;;;11.38;100.00
75640;BME280;64233;51.486;6.332;2022-10-22T01:02:38;100681.00;;;11.36;100.00
75640;BME280;64233;51.486;6.332;2022-10-22T01:05:03;100681.00;;;11.36;100.00
75640;BME280;64233;51.486;6.332;2022-10-22T01:07:29;100680.19;;;11.36;100.00
75640;BME280;64233;51.486;6.332;2022-10-22T01:16:06;100695.13;;;11.22;100.00
75640;BME280;64233;51.486;6.332;2022-10-22T01:18:34;100703.47;;;11.25;100.00
75640;BME280;64233;51.486;6.332;2022-10-22T01:31:38;100666.84;;;10.81;100.00
75640;BME280;64233;51.486;6.332;2022-10-22T01:34:06;100664.84;;;10.66;100.00
75640;BME280;64233;51.486;6.332;2022-10-22T01:36:34;100665.38;;;10.63;100.00
75640;BME280;64233;51.486;6.332;2022-10-22T01:39:02;100668.25;;;10.57;100.00
75640;BME280;64233;51.486;6.332;2022-10-22T01:41:29;100664.16;;;10.49;100.00
75640;BME280;64233;51.486;6.332;2022-10-22T01:43:54;100673.19;;;10.43;100.00
75640;BME280;64233;51.486;6.332;2022-10-22T01:46:21;100660.59;;;10.43;100.00
75640;BME280;64233;51.486;6.332;2022-10-22T01:49:04;100667.28;;;10.41;100.00
75640;BME280;64233;51.486;6.332;2022-10-22T01:54:30;100661.41;;;10.22;100.00
75640;BME280;64233;51.486;6.332;2022-10-22T02:00:03;100651.75;;;9.98;100.00
75640;BME280;64233;51.486;6.332;2022-10-22T02:02:36;100650.69;;;9.99;100.00
75640;BME280;64233;51.486;6.332;2022-10-22T02:07:41;100670.00;;;10.02;100.00
75640;BME280;64233;51.486;6.332;2022-10-22T02:10:09;100666.75;;;10.22;100.00
75640;BME280;64233;51.486;6.332;2022-10-22T02:12:36;100667.69;;;10.32;100.00
75640;BME280;64233;51.486;6.332;2022-10-22T02:15:03;100662.31;;;10.32;100.00
75640;BME280;64233;51.486;6.332;2022-10-22T02:17:32;100666.31;;;10.30;100.00
75640;BME280;64233;51.486;6.332;2022-10-22T02:20:10;100668.38;;;10.23;100.00
75640;BME280;64233;51.486;6.332;2022-10-22T02:22:38;100670.19;;;10.17;100.00
75640;BME280;64233;51.486;6.332;2022-10-22T02:25:05;100676.94;;;10.20;100.00
75640;BME280;64233;51.486;6.332;2022-10-22T02:27:46;100670.75;;;10.19;100.00
75640;BME280;64233;51.486;6.332;2022-10-22T02:30:18;100675.44;;;10.07;100.00
75640;BME280;64233;51.486;6.332;2022-10-22T02:32:49;100677.50;;;9.99;100.00
75640;BME280;64233;51.486;6.332;2022-10-22T02:35:19;100672.06;;;9.94;100.00
75640;BME280;64233;51.486;6.332;2022-10-22T02:37:45;100674.75;;;10.16;100.00
75640;BME280;64233;51.486;6.332;2022-10-22T02:40:12;100675.75;;;10.10;100.00
75640;BME280;64233;51.486;6.332;2022-10-22T02:42:39;100673.19;;;9.98;100.00
75640;BME280;64233;51.486;6.332;2022-10-22T02:45:06;100682.41;;;10.08;100.00
75640;BME280;64233;51.486;6.332;2022-10-22T02:47:32;100679.38;;;10.21;100.00
75640;BME280;64233;51.486;6.332;2022-10-22T02:49:58;100679.72;;;10.30;100.00
75640;BME280;64233;51.486;6.332;2022-10-22T02:52:24;100685.56;;;10.44;100.00
75640;BME280;64233;51.486;6.332;2022-10-22T02:54:50;100677.44;;;10.66;100.00
75640;BME280;64233;51.486;6.332;2022-10-22T02:57:16;100686.63;;;10.70;100.00
75640;BME280;64233;51.486;6.332;2022-10-22T02:59:41;100692.31;;;10.74;100.00
75640;BME280;64233;51.486;6.332;2022-10-22T03:02:07;100685.91;;;10.80;100.00
75640;BME280;64233;51.486;6.332;2022-10-22T03:04:34;100685.19;;;10.90;100.00
75640;BME280;64233;51.486;6.332;2022-10-22T03:06:59;100684.72;;;10.98;100.00
75640;BME280;64233;51.486;6.332;2022-10-22T03:09:25;100685.03;;;11.01;100.00
75640;BME280;64233;51.486;6.332;2022-10-22T03:11:51;100685.28;;;11.00;100.00
75640;BME280;64233;51.486;6.332;2022-10-22T03:14:17;100689.66;;;11.11;100.00
75640;BME280;64233;51.486;6.332;2022-10-22T03:16:42;100692.31;;;11.06;100.00
75640;BME280;64233;51.486;6.332;2022-10-22T03:19:08;100689.59;;;11.01;100.00
75640;BME280;64233;51.486;6.332;2022-10-22T03:21:53;100697.19;;;11.09;100.00
75640;BME280;64233;51.486;6.332;2022-10-22T03:24:44;100688.88;;;11.11;100.00
75640;BME280;64233;51.486;6.332;2022-10-22T03:27:08;100686.22;;;11.16;100.00
75640;BME280;64233;51.486;6.332;2022-10-22T03:29:36;100685.44;;;11.20;100.00
75640;BME280;64233;51.486;6.332;2022-10-22T03:32:03;100685.41;;;11.15;100.00
75640;BME280;64233;51.486;6.332;2022-10-22T03:34:29;100682.44;;;11.12;100.00
75640;BME280;64233;51.486;6.332;2022-10-22T03:36:56;100692.16;;;11.18;100.00
75640;BME280;64233;51.486;6.332;2022-10-22T03:39:22;100698.03;;;11.15;100.00
75640;BME280;64233;51.486;6.332;2022-10-22T03:41:49;100689.44;;;11.13;100.00
75640;BME280;64233;51.486;6.332;2022-10-22T03:44:16;100691.28;;;11.07;100.00
75640;BME280;64233;51.486;6.332;2022-10-22T03:46:42;100695.53;;;11.03;100.00
75640;BME280;64233;51.486;6.332;2022-10-22T03:49:07;100697.44;;;11.08;100.00
75640;BME280;64233;51.486;6.332;2022-10-22T03:51:33;100696.84;;;11.00;100.00
75640;BME280;64233;51.486;6.332;2022-10-22T03:54:00;100694.75;;;11.08;100.00
75640;BME280;64233;51.486;6.332;2022-10-22T03:56:25;100706.00;;;11.05;100.00
75640;BME280;64233;51.486;6.332;2022-10-22T03:58:50;100708.19;;;11.08;100.00
75640;BME280;64233;51.486;6.332;2022-10-22T04:01:19;100704.97;;;11.11;100.00
75640;BME280;64233;51.486;6.332;2022-10-22T04:03:45;100709.84;;;11.14;100.00
75640;BME280;64233;51.486;6.332;2022-10-22T04:06:11;100711.34;;;11.32;100.00
75640;BME280;64233;51.486;6.332;2022-10-22T04:08:38;100714.41;;;11.51;100.00
75640;BME280;64233;51.486;6.332;2022-10-22T04:11:04;100717.63;;;11.48;100.00
75640;BME280;64233;51.486;6.332;2022-10-22T04:13:30;100718.47;;;11.53;100.00
75640;BME280;64233;51.486;6.332;2022-10-22T04:15:55;100726.78;;;11.52;100.00
75640;BME280;64233;51.486;6.332;2022-10-22T04:18:30;100721.41;;;11.52;100.00
75640;BME280;64233;51.486;6.332;2022-10-22T04:20:55;100716.75;;;11.37;100.00
75640;BME280;64233;51.486;6.332;2022-10-22T04:23:21;100723.97;;;11.31;100.00
75640;BME280;64233;51.486;6.332;2022-10-22T04:25:46;100725.53;;;11.27;100.00
75640;BME280;64233;51.486;6.332;2022-10-22T04:28:11;100732.19;;;11.19;100.00
75640;BME280;64233;51.486;6.332;2022-10-22T04:30:37;100728.13;;;11.17;100.00
75640;BME280;64233;51.486;6.332;2022-10-22T04:33:02;100732.09;;;11.09;100.00
75640;BME280;64233;51.486;6.332;2022-10-22T04:35:28;100727.50;;;11.05;100.00
75640;BME280;64233;51.486;6.332;2022-10-22T04:37:54;100731.38;;;11.19;100.00
75640;BME280;64233;51.486;6.332;2022-10-22T04:40:20;100731.91;;;11.16;100.00
75640;BME280;64233;51.486;6.332;2022-10-22T04:42:46;100723.91;;;11.26;100.00
75640;BME280;64233;51.486;6.332;2022-10-22T04:45:11;100734.47;;;11.33;100.00
75640;BME280;64233;51.486;6.332;2022-10-22T04:47:36;100733.88;;;11.31;100.00
75640;BME280;64233;51.486;6.332;2022-10-22T04:50:02;100732.19;;;11.19;100.00
75640;BME280;64233;51.486;6.332;2022-10-22T04:52:28;100733.72;;;11.10;100.00
75640;BME280;64233;51.486;6.332;2022-10-22T04:54:54;100726.41;;;11.06;100.00
75640;BME280;64233;51.486;6.332;2022-10-22T04:57:20;100734.88;;;11.19;100.00
75640;BME280;64233;51.486;6.332;2022-10-22T04:59:45;100743.84;;;11.30;100.00
75640;BME280;64233;51.486;6.332;2022-10-22T05:02:10;100750.91;;;11.42;100.00
75640;BME280;64233;51.486;6.332;2022-10-22T05:04:36;100745.81;;;11.45;100.00
75640;BME280;64233;51.486;6.332;2022-10-22T05:07:01;100746.13;;;11.49;100.00
75640;BME280;64233;51.486;6.332;2022-10-22T05:09:26;100740.50;;;11.50;100.00
75640;BME280;64233;51.486;6.332;2022-10-22T05:11:53;100752.13;;;11.61;100.00
75640;BME280;64233;51.486;6.332;2022-10-22T05:14:21;100750.19;;;11.57;100.00
75640;BME280;64233;51.486;6.332;2022-10-22T05:16:47;100748.63;;;11.61;100.00
75640;BME280;64233;51.486;6.332;2022-10-22T05:19:21;100751.88;;;11.63;100.00
75640;BME280;64233;51.486;6.332;2022-10-22T05:21:55;100748.88;;;11.59;100.00
75640;BME280;64233;51.486;6.332;2022-10-22T05:24:21;100745.41;;;11.59;100.00
75640;BME280;64233;51.486;6.332;2022-10-22T05:26:50;100751.34;;;11.66;100.00
75640;BME280;64233;51.486;6.332;2022-10-22T05:29:16;100750.03;;;11.68;100.00
75640;BME280;64233;51.486;6.332;2022-10-22T05:31:42;100760.22;;;11.61;100.00
75640;BME280;64233;51.486;6.332;2022-10-22T05:34:07;100754.84;;;11.66;100.00
75640;BME280;64233;51.486;6.332;2022-10-22T05:36:32;100760.22;;;11.66;100.00
75640;BME280;64233;51.486;6.332;2022-10-22T05:38:58;100756.47;;;11.67;100.00
75640;BME280;64233;51.486;6.332;2022-10-22T05:41:25;100758.06;;;11.63;100.00
75640;BME280;64233;51.486;6.332;2022-10-22T05:43:52;100751.56;;;11.59;100.00
75640;BME280;64233;51.486;6.332;2022-10-22T05:46:20;100761.78;;;11.57;100.00
75640;BME280;64233;51.486;6.332;2022-10-22T05:48:54;100756.72;;;11.66;100.00
75640;BME280;64233;51.486;6.332;2022-10-22T05:51:20;100757.00;;;11.64;100.00
75640;BME280;64233;51.486;6.332;2022-10-22T05:53:51;100763.50;;;11.74;100.00
75640;BME280;64233;51.486;6.332;2022-10-22T05:56:17;100769.44;;;11.76;100.00
75640;BME280;64233;51.486;6.332;2022-10-22T05:58:43;100770.75;;;11.73;100.00
75640;BME280;64233;51.486;6.332;2022-10-22T06:01:16;100773.66;;;11.61;100.00
75640;BME280;64233;51.486;6.332;2022-10-22T06:03:42;100776.41;;;11.71;100.00
75640;BME280;64233;51.486;6.332;2022-10-22T06:06:20;100777.94;;;11.62;100.00
75640;BME280;64233;51.486;6.332;2022-10-22T06:08:47;100776.34;;;11.66;100.00
75640;BME280;64233;51.486;6.332;2022-10-22T06:11:15;100787.41;;;11.70;100.00
75640;BME280;64233;51.486;6.332;2022-10-22T06:13:42;100786.56;;;11.64;100.00
75640;BME280;64233;51.486;6.332;2022-10-22T06:16:08;100786.31;;;11.66;100.00
75640;BME280;64233;51.486;6.332;2022-10-22T06:18:34;100797.53;;;11.58;100.00
75640;BME280;64233;51.486;6.332;2022-10-22T06:21:04;100798.44;;;11.68;100.00
75640;BME280;64233;51.486;6.332;2022-10-22T06:23:30;100801.81;;;11.91;100.00
75640;BME280;64233;51.486;6.332;2022-10-22T06:25:56;100802.78;;;12.12;100.00
75640;BME280;64233;51.486;6.332;2022-10-22T06:28:22;100803.31;;;12.14;100.00
75640;BME280;64233;51.486;6.332;2022-10-22T06:30:47;100811.75;;;12.28;100.00
75640;BME280;64233;51.486;6.332;2022-10-22T06:33:13;100815.88;;;12.51;100.00
75640;BME280;64233;51.486;6.332;2022-10-22T06:35:38;100812.66;;;12.49;100.00
75640;BME280;64233;51.486;6.332;2022-10-22T06:38:03;100828.88;;;12.70;99.74
75640;BME280;64233;51.486;6.332;2022-10-22T06:40:31;100831.94;;;12.89;99.48
75640;BME280;64233;51.486;6.332;2022-10-22T06:42:58;100821.16;;;12.94;98.52
75640;BME280;64233;51.486;6.332;2022-10-22T06:45:24;100831.16;;;13.04;98.69
75640;BME280;64233;51.486;6.332;2022-10-22T06:47:49;100842.78;;;13.20;97.75
75640;BME280;64233;51.486;6.332;2022-10-22T06:50:15;100843.59;;;13.20;98.21
75640;BME280;64233;51.486;6.332;2022-10-22T06:52:41;100853.03;;;13.23;97.72
75640;BME280;64233;51.486;6.332;2022-10-22T06:55:06;100859.50;;;13.22;98.04
75640;BME280;64233;51.486;6.332;2022-10-22T06:57:32;100866.22;;;13.14;98.23
75640;BME280;64233;51.486;6.332;2022-10-22T06:59:57;100874.00;;;13.05;98.50
75640;BME280;64233;51.486;6.332;2022-10-22T07:02:23;100879.34;;;12.95;98.57
75640;BME280;64233;51.486;6.332;2022-10-22T07:04:48;100879.38;;;13.00;98.69
75640;BME280;64233;51.486;6.332;2022-10-22T07:07:13;100880.41;;;12.94;99.29
75640;BME280;64233;51.486;6.332;2022-10-22T07:09:39;100879.81;;;12.77;99.35
75640;BME280;64233;51.486;6.332;2022-10-22T07:12:05;100889.81;;;12.81;99.84
75640;BME280;64233;51.486;6.332;2022-10-22T07:14:30;100879.03;;;12.81;99.70
75640;BME280;64233;51.486;6.332;2022-10-22T07:16:56;100890.06;;;12.80;99.31
75640;BME280;64233;51.486;6.332;2022-10-22T07:19:21;100890.34;;;12.78;99.63
75640;BME280;64233;51.486;6.332;2022-10-22T07:21:47;100889.50;;;12.72;99.50
75640;BME280;64233;51.486;6.332;2022-10-22T07:24:12;100895.94;;;12.71;99.13
75640;BME280;64233;51.486;6.332;2022-10-22T07:26:37;100896.25;;;12.75;99.58
75640;BME280;64233;51.486;6.332;2022-10-22T07:29:04;100896.28;;;12.85;98.60
75640;BME280;64233;51.486;6.332;2022-10-22T07:31:30;100902.78;;;12.84;99.02
75640;BME280;64233;51.486;6.332;2022-10-22T07:33:56;100907.63;;;12.92;98.91
75640;BME280;64233;51.486;6.332;2022-10-22T07:36:21;100912.84;;;13.15;98.75
75640;BME280;64233;51.486;6.332;2022-10-22T07:38:50;100915.63;;;13.35;98.45
75640;BME280;64233;51.486;6.332;2022-10-22T07:41:17;100917.78;;;13.43;97.59
75640;BME280;64233;51.486;6.332;2022-10-22T07:43:42;100924.47;;;13.31;98.38
75640;BME280;64233;51.486;6.332;2022-10-22T07:46:08;100931.00;;;13.35;98.05
75640;BME280;64233;51.486;6.332;2022-10-22T07:48:34;100939.91;;;13.40;97.79
75640;BME280;64233;51.486;6.332;2022-10-22T07:51:00;100930.50;;;13.53;96.86
75640;BME280;64233;51.486;6.332;2022-10-22T07:53:26;100938.31;;;13.45;97.96
75640;BME280;64233;51.486;6.332;2022-10-22T07:55:51;100941.56;;;13.52;97.10
75640;BME280;64233;51.486;6.332;2022-10-22T07:58:18;100947.75;;;13.52;97.35
75640;BME280;64233;51.486;6.332;2022-10-22T08:00:44;100951.00;;;13.54;97.26
75640;BME280;64233;51.486;6.332;2022-10-22T08:03:11;100945.34;;;13.61;97.06
75640;BME280;64233;51.486;6.332;2022-10-22T08:05:36;100948.59;;;13.68;96.44
75640;BME280;64233;51.486;6.332;2022-10-22T08:08:04;100957.50;;;13.69;96.36
75640;BME280;64233;51.486;6.332;2022-10-22T08:10:30;100963.69;;;13.69;96.22
75640;BME280;64233;51.486;6.332;2022-10-22T08:12:56;100958.06;;;13.71;96.38
75640;BME280;64233;51.486;6.332;2022-10-22T08:15:21;100964.50;;;13.75;96.39
75640;BME280;64233;51.486;6.332;2022-10-22T08:17:49;100974.25;;;13.81;95.64
75640;BME280;64233;51.486;6.332;2022-10-22T08:20:14;100979.91;;;13.74;96.33
75640;BME280;64233;51.486;6.332;2022-10-22T08:22:40;100980.97;;;13.68;97.29
75640;BME280;64233;51.486;6.332;2022-10-22T08:25:06;100982.84;;;13.68;96.24
75640;BME280;64233;51.486;6.332;2022-10-22T08:27:31;100977.75;;;13.82;96.01
75640;BME280;64233;51.486;6.332;2022-10-22T08:29:56;100988.00;;;13.85;95.96
75640;BME280;64233;51.486;6.332;2022-10-22T08:32:22;100984.53;;;13.89;95.26
75640;BME280;64233;51.486;6.332;2022-10-22T08:34:47;100987.50;;;13.88;96.00
75640;BME280;64233;51.486;6.332;2022-10-22T08:37:13;100988.28;;;13.83;95.93
75640;BME280;64233;51.486;6.332;2022-10-22T08:39:39;100995.81;;;13.86;96.14
75640;BME280;64233;51.486;6.332;2022-10-22T08:47:54;101001.25;;;14.02;95.49
75640;BME280;64233;51.486;6.332;2022-10-22T08:50:21;101003.16;;;14.06;95.72
75640;BME280;64233;51.486;6.332;2022-10-22T08:52:50;101002.63;;;14.09;95.63
75640;BME280;64233;51.486;6.332;2022-10-22T08:55:17;101003.16;;;14.06;96.97
75640;BME280;64233;51.486;6.332;2022-10-22T08:58:04;101003.41;;;14.10;96.72
75640;BME280;64233;51.486;6.332;2022-10-22T09:03:32;101010.72;;;14.20;95.18
75640;BME280;64233;51.486;6.332;2022-10-22T09:06:08;101016.38;;;14.28;94.81
75640;BME280;64233;51.486;6.332;2022-10-22T09:08:36;101014.50;;;14.34;94.85
75640;BME280;64233;51.486;6.332;2022-10-22T09:13:27;101026.09;;;14.40;94.59
75640;BME280;64233;51.486;6.332;2022-10-22T09:15:56;101027.72;;;14.41;94.57
75640;BME280;64233;51.486;6.332;2022-10-22T09:18:37;101013.97;;;14.48;93.61
75640;BME280;64233;51.486;6.332;2022-10-22T09:21:15;101019.34;;;14.58;93.76
75640;BME280;64233;51.486;6.332;2022-10-22T09:26:27;101038.00;;;14.59;92.96
75640;BME280;64233;51.486;6.332;2022-10-22T09:28:53;101040.97;;;14.58;92.37
75640;BME280;64233;51.486;6.332;2022-10-22T09:31:18;101032.91;;;14.63;93.32
75640;BME280;64233;51.486;6.332;2022-10-22T09:33:45;101036.13;;;14.65;92.80
75640;BME280;64233;51.486;6.332;2022-10-22T09:36:16;101041.53;;;14.65;92.77
75640;BME280;64233;51.486;6.332;2022-10-22T09:38:47;101047.47;;;14.67;93.55
75640;BME280;64233;51.486;6.332;2022-10-22T09:41:14;101053.91;;;14.61;93.92
75640;BME280;64233;51.486;6.332;2022-10-22T09:43:39;101046.66;;;14.67;91.98
75640;BME280;64233;51.486;6.332;2022-10-22T09:46:07;101054.50;;;14.68;91.94
75640;BME280;64233;51.486;6.332;2022-10-22T09:48:40;101059.34;;;14.71;91.34
75640;BME280;64233;51.486;6.332;2022-10-22T09:51:21;101054.75;;;14.67;92.87
75640;BME280;64233;51.486;6.332;2022-10-22T09:53:58;101058.03;;;14.69;92.30
75640;BME280;64233;51.486;6.332;2022-10-22T09:56:33;101065.56;;;14.72;91.76
75640;BME280;64233;51.486;6.332;2022-10-22T09:59:00;101064.47;;;14.73;92.75
75640;BME280;64233;51.486;6.332;2022-10-22T10:01:28;101072.59;;;14.78;92.85
75640;BME280;64233;51.486;6.332;2022-10-22T10:04:01;101075.28;;;14.83;91.92
75640;BME280;64233;51.486;6.332;2022-10-22T10:06:31;101080.66;;;14.88;91.31
75640;BME280;64233;51.486;6.332;2022-10-22T10:08:56;101078.53;;;14.90;92.53
75640;BME280;64233;51.486;6.332;2022-10-22T10:11:36;101081.75;;;14.97;91.33
75640;BME280;64233;51.486;6.332;2022-10-22T10:17:14;101092.56;;;14.97;90.78
75640;BME280;64233;51.486;6.332;2022-10-22T10:27:52;101105.25;;;15.02;91.06
75640;BME280;64233;51.486;6.332;2022-10-22T10:30:21;101110.38;;;15.04;90.06
75640;BME280;64233;51.486;6.332;2022-10-22T10:35:26;101111.50;;;14.97;91.52
75640;BME280;64233;51.486;6.332;2022-10-22T10:46:24;101127.66;;;15.18;91.26
75640;BME280;64233;51.486;6.332;2022-10-22T10:48:54;101119.56;;;15.23;90.37
75640;BME280;64233;51.486;6.332;2022-10-22T10:53:59;101124.16;;;15.23;90.63
75640;BME280;64233;51.486;6.332;2022-10-22T10:59:26;101123.59;;;15.36;89.97
75640;BME280;64233;51.486;6.332;2022-10-22T11:04:45;101129.03;;;15.31;90.24
75640;BME280;64233;51.486;6.332;2022-10-22T11:07:20;101129.25;;;15.29;90.36
75640;BME280;64233;51.486;6.332;2022-10-22T11:10:12;101133.88;;;15.34;91.44
75640;BME280;64233;51.486;6.332;2022-10-22T11:12:44;101124.69;;;15.25;89.45
75640;BME280;64233;51.486;6.332;2022-10-22T11:15:31;101128.47;;;15.24;88.90
75640;BME280;64233;51.486;6.332;2022-10-22T11:18:58;101128.22;;;15.15;90.08
75640;BME280;64233;51.486;6.332;2022-10-22T11:23:52;101136.06;;;15.06;91.72
75640;BME280;64233;51.486;6.332;2022-10-22T11:26:28;101138.78;;;15.11;90.19
75640;BME280;64233;51.486;6.332;2022-10-22T11:28:59;101138.50;;;15.13;90.79
75640;BME280;64233;51.486;6.332;2022-10-22T11:31:26;101146.34;;;15.14;91.93
75640;BME280;64233;51.486;6.332;2022-10-22T11:33:59;101140.38;;;15.23;90.64
75640;BME280;64233;51.486;6.332;2022-10-22T11:36:29;101143.59;;;15.35;89.53
75640;BME280;64233;51.486;6.332;2022-10-22T11:38:55;101143.31;;;15.47;91.06
75640;BME280;64233;51.486;6.332;2022-10-22T11:41:26;101145.47;;;15.50;90.13
75640;BME280;64233;51.486;6.332;2022-10-22T11:46:45;101133.25;;;15.63;88.57
75640;BME280;64233;51.486;6.332;2022-10-22T11:51:41;101137.28;;;15.71;89.79
75640;BME280;64233;51.486;6.332;2022-10-22T11:59:58;101141.03;;;15.75;89.26
75640;BME280;64233;51.486;6.332;2022-10-22T12:04:54;101141.88;;;15.70;88.99
75640;BME280;64233;51.486;6.332;2022-10-22T12:07:52;101127.00;;;15.67;88.65
75640;BME280;64233;51.486;6.332;2022-10-22T12:10:26;101117.78;;;15.74;89.19
75640;BME280;64233;51.486;6.332;2022-10-22T12:13:10;101121.56;;;15.73;87.95
75640;BME280;64233;51.486;6.332;2022-10-22T12:15:46;101125.34;;;15.77;88.61
75640;BME280;64233;51.486;6.332;2022-10-22T12:18:13;101129.44;;;15.79;87.14
75640;BME280;64233;51.486;6.332;2022-10-22T12:20:39;101121.56;;;15.78;89.37
75640;BME280;64233;51.486;6.332;2022-10-22T12:23:06;101118.31;;;15.81;89.69
75640;BME280;64233;51.486;6.332;2022-10-22T12:25:33;101119.66;;;15.78;87.96
75640;BME280;64233;51.486;6.332;2022-10-22T12:28:00;101129.41;;;15.69;87.94
75640;BME280;64233;51.486;6.332;2022-10-22T12:30:29;101129.75;;;15.62;88.49
75640;BME280;64233;51.486;6.332;2022-10-22T12:33:00;101130.03;;;15.56;89.15
75640;BME280;64233;51.486;6.332;2022-10-22T12:35:31;101122.44;;;15.58;88.09
75640;BME280;64233;51.486;6.332;2022-10-22T12:38:00;101122.41;;;15.68;88.68
75640;BME280;64233;51.486;6.332;2022-10-22T12:40:26;101121.28;;;15.84;88.02
75640;BME280;64233;51.486;6.332;2022-10-22T12:42:57;101119.63;;;15.94;86.66
75640;BME280;64233;51.486;6.332;2022-10-22T12:45:28;101130.94;;;16.06;87.72
75640;BME280;64233;51.486;6.332;2022-10-22T12:48:02;101125.31;;;16.37;86.28
75640;BME280;64233;51.486;6.332;2022-10-22T12:50:34;101121.03;;;16.26;85.69
75640;BME280;64233;51.486;6.332;2022-10-22T12:53:14;101119.16;;;16.26;87.16
75640;BME280;64233;51.486;6.332;2022-10-22T12:55:39;101124.16;;;16.04;86.48
75640;BME280;64233;51.486;6.332;2022-10-22T12:58:06;101129.59;;;15.98;87.94
75640;BME280;64233;51.486;6.332;2022-10-22T13:00:33;101128.81;;;15.98;86.70
75640;BME280;64233;51.486;6.332;2022-10-22T13:03:03;101138.28;;;15.95;88.63
75640;BME280;64233;51.486;6.332;2022-10-22T13:05:33;101135.03;;;15.93;87.74
75640;BME280;64233;51.486;6.332;2022-10-22T13:10:40;101138.06;;;15.81;87.91
75640;BME280;64233;51.486;6.332;2022-10-22T13:13:06;101142.66;;;15.86;90.42
75640;BME280;64233;51.486;6.332;2022-10-22T13:15:51;101131.25;;;15.94;87.24
75640;BME280;64233;51.486;6.332;2022-10-22T13:18:19;101133.44;;;15.92;87.86
75640;BME280;64233;51.486;6.332;2022-10-22T13:20:50;101130.44;;;15.94;86.70
75640;BME280;64233;51.486;6.332;2022-10-22T13:23:18;101145.59;;;15.95;88.81
75640;BME280;64233;51.486;6.332;2022-10-22T13:25:55;101148.84;;;15.97;87.79
75640;BME280;64233;51.486;6.332;2022-10-22T13:28:21;101137.38;;;16.15;88.98
75640;BME280;64233;51.486;6.332;2022-10-22T13:31:13;101136.44;;;16.35;86.90
75640;BME280;64233;51.486;6.332;2022-10-22T13:33:41;101131.56;;;16.32;86.26
75640;BME280;64233;51.486;6.332;2022-10-22T13:36:12;101135.47;;;16.16;87.08
75640;BME280;64233;51.486;6.332;2022-10-22T13:38:38;101131.34;;;16.29;87.46
75640;BME280;64233;51.486;6.332;2022-10-22T13:41:03;101131.66;;;16.22;87.50
75640;BME280;64233;51.486;6.332;2022-10-22T13:46:08;101134.72;;;16.05;87.61
75640;BME280;64233;51.486;6.332;2022-10-22T13:48:36;101136.94;;;15.98;89.46
75640;BME280;64233;51.486;6.332;2022-10-22T13:51:05;101140.72;;;15.97;87.63
75640;BME280;64233;51.486;6.332;2022-10-22T13:53:32;101146.13;;;16.02;87.51
75640;BME280;64233;51.486;6.332;2022-10-22T13:55:57;101141.00;;;15.95;89.42
75640;BME280;64233;51.486;6.332;2022-10-22T13:58:23;101146.28;;;16.16;89.81
75640;BME280;64233;51.486;6.332;2022-10-22T14:00:51;101145.63;;;16.40;87.70
75640;BME280;64233;51.486;6.332;2022-10-22T14:03:20;101139.59;;;16.48;87.03
75640;BME280;64233;51.486;6.332;2022-10-22T14:05:48;101142.22;;;16.58;87.67
75640;BME280;64233;51.486;6.332;2022-10-22T14:08:19;101137.78;;;16.33;85.27
75640;BME280;64233;51.486;6.332;2022-10-22T14:10:45;101139.34;;;16.44;87.70
75640;BME280;64233;51.486;6.332;2022-10-22T14:13:11;101142.53;;;16.57;86.96
75640;BME280;64233;51.486;6.332;2022-10-22T14:15:38;101146.56;;;16.59;86.45
75640;BME280;64233;51.486;6.332;2022-10-22T14:18:05;101141.66;;;16.61;85.39
75640;BME280;64233;51.486;6.332;2022-10-22T14:20:34;101138.41;;;16.64;86.18
75640;BME280;64233;51.486;6.332;2022-10-22T14:23:21;101134.78;;;16.40;85.10